EmailTwitter


Surface observations / United Kingdom / EGLL (03772)

Regions: Quebec | Canada | USA | Europe | France | UK | Elsewhere
Station
Display
Info & Location for EGLL (03772) | Help decoding METAR

Weather Conditions observed on 2020/10/25 at 11:50 UTC at LONDON/HEATHROW, UK (EGLL)

Temperature: 11.0 Celsius.

Dewpoint: 7.0 Celsius.

Relative Humidity: 76%

Windchill Factor: 9.

Winds: Southwest at 17 km/h or 9 knots.

Mean Sea level Pressure: 99.60 kilopascals.

Horizontal visibility: 6.21 statute miles or 9.94 kilometers.

Coded METAR:

EGLL 251150Z AUTO 21009KT 9999 NCD 11/07 Q0996=